»·PEaware :: N145BE KSBA-KSMX

N145BE :: KSBA-KSMX

FLIGHT INFORMATION

Flight Status: Arrived
Operator: Privately registered:
United States
More flights under this callsign
Pilot: Santiago S. (22950)
Aircraft: BEECH AIRCRAFT BARON
(BE58)
More flights by this aircraft type
Origin: KSBA Santa Barbara Mun
United States
Destination: KSMX Santa Maria Pub/Capt Hancock
United States
More flights between these airports :: More routes between these airports
Route: +FLOUT5 RZS
File this flight plan on PilotEdge
Remarks: I RATING 10
Altitude:
(Current/Filed)
4,000ft
Speed:
(Current/Filed)
180kts
Departed: 10-Mar-19 12:06 PM
Arrived: 10-Mar-19 01:42 PM
Distance/Time
Traveled:
47nm/1:36
Distance/Time
To Go:
Arrived

Flight Plot

Page will automatically refresh every two minutes.


Map Options




Map Legend


Flown Route
Filed Route
Departure Airport
Arrival Airport
Navaid (VOR, NDB)
Fix

Horizontal Profiles

Position Reports

Time Latitude Longitude Heading Altitude Ground
Speed
10-Mar-19 11:43 34.424055 -119.836828 78 11ft 0kts
10-Mar-19 11:44 34.424055 -119.836828 78 11ft 0kts
10-Mar-19 11:45 34.424055 -119.836828 78 11ft 0kts
10-Mar-19 11:46 34.424055 -119.836828 78 11ft 0kts
10-Mar-19 11:47 34.424055 -119.836828 78 11ft 0kts
10-Mar-19 11:48 34.424055 -119.836828 78 11ft 0kts
10-Mar-19 11:49 34.424055 -119.836828 78 11ft 0kts
10-Mar-19 11:50 34.424055 -119.836828 78 11ft 0kts
10-Mar-19 11:51 34.424055 -119.836828 78 11ft 0kts
10-Mar-19 11:52 34.424055 -119.836828 78 11ft 0kts
10-Mar-19 11:53 34.424055 -119.836828 78 11ft 0kts
10-Mar-19 11:54 34.424055 -119.836828 78 11ft 0kts
10-Mar-19 11:55 34.424055 -119.836828 78 11ft 0kts
10-Mar-19 11:56 34.424055 -119.836828 78 11ft 0kts
10-Mar-19 11:57 34.424055 -119.836828 78 11ft 0kts
10-Mar-19 11:58 34.424055 -119.836828 78 11ft 0kts
10-Mar-19 11:59 34.424041 -119.836787 137 11ft 2kts
10-Mar-19 12:00 34.425613 -119.838005 348 12ft 15kts
10-Mar-19 12:01 34.426932 -119.834652 29 11ft 14kts
10-Mar-19 12:02 34.427101 -119.834615 356 11ft 0kts
10-Mar-19 12:03 34.427101 -119.834615 356 11ft 0kts
10-Mar-19 12:04 34.427101 -119.834615 356 11ft 0kts
10-Mar-19 12:05 34.427609 -119.844624 263 165ft 108kts
10-Mar-19 12:06 34.428153 -119.891495 269 1432ft 145kts
10-Mar-19 12:19 34.424055 -119.836828 0 11ft 0kts
10-Mar-19 12:20 34.424055 -119.836828 78 11ft 0kts
10-Mar-19 12:21 34.424055 -119.836828 78 11ft 0kts
10-Mar-19 12:22 34.424055 -119.836828 78 11ft 0kts
10-Mar-19 12:24 34.424055 -119.836828 78 11ft 0kts
10-Mar-19 12:25 34.424055 -119.836828 78 11ft 0kts
10-Mar-19 12:26 34.424055 -119.836828 78 11ft 0kts
10-Mar-19 12:27 34.424055 -119.836828 78 11ft 0kts
10-Mar-19 12:28 34.424055 -119.836828 78 11ft 0kts
10-Mar-19 12:29 34.423939 -119.836912 260 11ft 4kts
10-Mar-19 12:30 34.426480 -119.838236 13 11ft 16kts
10-Mar-19 12:31 34.427059 -119.835226 13 11ft 0kts
10-Mar-19 12:32 34.427059 -119.835226 13 11ft 0kts
10-Mar-19 12:33 34.427059 -119.835226 13 11ft 0kts
10-Mar-19 12:34 34.427736 -119.840856 267 14ft 103kts
10-Mar-19 12:35 34.415364 -119.880832 184 973ft 142kts
10-Mar-19 12:36 34.377649 -119.879886 176 2305ft 134kts
10-Mar-19 12:37 34.340648 -119.892977 207 3668ft 148kts
10-Mar-19 12:38 34.306861 -119.917325 210 5121ft 137kts
10-Mar-19 12:39 34.274490 -119.940873 211 6289ft 145kts
10-Mar-19 12:40 34.291157 -119.973215 25 6073ft 190kts
10-Mar-19 12:41 34.321354 -119.920544 60 6075ft 193kts
10-Mar-19 12:42 34.363653 -119.881288 29 6075ft 194kts
10-Mar-19 12:42 34.402821 -119.854687 29 6075ft 194kts
10-Mar-19 12:44 34.458031 -119.816849 36 5997ft 195kts
10-Mar-19 12:45 34.500954 -119.777255 30 6003ft 194kts
10-Mar-19 12:45 34.539480 -119.749035 30 6003ft 194kts
10-Mar-19 12:46 34.585870 -119.714999 30 6003ft 194kts
10-Mar-19 12:47 34.632309 -119.680870 30 6003ft 194kts
10-Mar-19 12:59 34.424056 -119.836819 78 11ft 0kts
10-Mar-19 13:00 34.424056 -119.836819 78 11ft 0kts
10-Mar-19 13:01 34.424056 -119.836819 78 11ft 0kts
10-Mar-19 13:02 34.424056 -119.836819 78 11ft 0kts
10-Mar-19 13:03 34.424056 -119.836819 78 11ft 0kts
10-Mar-19 13:04 34.423897 -119.836816 263 11ft 4kts
10-Mar-19 13:05 34.426604 -119.837732 64 11ft 17kts
10-Mar-19 13:06 34.427128 -119.834637 359 11ft 0kts
10-Mar-19 13:07 34.427242 -119.834640 358 11ft 6kts
10-Mar-19 13:08 34.422940 -119.858415 212 464ft 140kts
10-Mar-19 13:09 34.385635 -119.862768 201 1978ft 137kts
10-Mar-19 13:10 34.351789 -119.885062 208 3009ft 159kts
10-Mar-19 13:11 34.312645 -119.913185 209 3662ft 153kts
10-Mar-19 13:12 34.277033 -119.939021 209 4646ft 148kts
10-Mar-19 13:13 34.284190 -119.972323 8 5495ft 163kts
10-Mar-19 13:14 34.312444 -119.930243 54 6009ft 178kts
10-Mar-19 13:15 34.352022 -119.890750 32 6003ft 188kts
10-Mar-19 13:16 34.397318 -119.858174 31 6003ft 189kts
10-Mar-19 13:17 34.442306 -119.824782 31 6003ft 189kts
10-Mar-19 13:18 34.487089 -119.791379 31 6003ft 189kts
10-Mar-19 13:19 34.532766 -119.778942 304 6000ft 180kts
10-Mar-19 13:20 34.545111 -119.836860 279 6003ft 177kts
10-Mar-19 13:21 34.567811 -119.890035 298 6003ft 178kts
10-Mar-19 13:22 34.593073 -119.941582 299 6003ft 177kts
10-Mar-19 13:23 34.618238 -119.993010 299 6003ft 177kts
10-Mar-19 13:24 34.643522 -120.044729 299 6003ft 177kts
10-Mar-19 13:25 34.668584 -120.096093 299 6003ft 177kts
10-Mar-19 13:26 34.694023 -120.148317 299 5803ft 185kts
10-Mar-19 13:27 34.719491 -120.200678 299 5959ft 172kts
10-Mar-19 13:28 34.749760 -120.254668 299 4868ft 195kts
10-Mar-19 13:29 34.775723 -120.310614 301 4621ft 182kts
10-Mar-19 13:30 34.806357 -120.359282 292 4478ft 187kts
10-Mar-19 13:31 34.838532 -120.402170 342 3184ft 169kts
10-Mar-19 13:32 34.873941 -120.422948 317 815ft 112kts
10-Mar-19 13:33 34.896578 -120.454756 308 933ft 147kts
10-Mar-19 13:34 34.925441 -120.489631 317 1626ft 155kts
10-Mar-19 13:35 34.958246 -120.528182 316 2509ft 168kts
10-Mar-19 13:36 34.995991 -120.572796 316 2118ft 193kts
10-Mar-19 13:37 35.034085 -120.605676 15 2114ft 166kts
10-Mar-19 13:38 35.027727 -120.565255 158 2122ft 167kts
10-Mar-19 13:39 35.001801 -120.551966 154 1398ft 101kts
10-Mar-19 13:40 34.979525 -120.531594 136 477ft 95kts
10-Mar-19 13:41 34.970370 -120.519310 128 142ft 0kts

Navigation Log

Ident Type
Flight plan parsing failed, navigation log unavailable